Time;durP1;ratioP1;P1;durP2;ratioP2;P2;SDS_P1;SDS_P2;PMS_P1;PMS_P2;Temp;Humidity;BMP_temperature;BMP_pressure;BME280_temperature;BME280_humidity;BME280_pressure;Samples;Min_cycle;Max_cycle;Signal;HPM_P1;HPM_P2
2024/01/08 00:00:46;;;;;;;24.40;11.60;;;;;;;-8.72;62.13;100974.65;103908;1259;138768;-66
2024/01/08 00:03:33;;;;;;;19.80;11.20;;;;;;;-8.75;62.16;100980.17;103980;1257;96233;-69
2024/01/08 00:06:00;;;;;;;23.80;13.30;;;;;;;-8.73;62.39;100978.30;102492;1258;139069;-69
2024/01/08 00:08:27;;;;;;;23.40;12.50;;;;;;;-8.72;62.27;100982.08;102598;1258;108226;-68
2024/01/08 00:10:54;;;;;;;19.60;11.40;;;;;;;-8.76;61.87;100986.05;102698;1260;99150;-68
2024/01/08 00:13:21;;;;;;;18.80;11.00;;;;;;;-8.79;62.08;100985.52;102045;1260;1003713;-68
2024/01/08 00:15:48;;;;;;;20.70;11.80;;;;;;;-8.76;62.26;100985.52;102908;1257;97701;-67
2024/01/08 00:18:15;;;;;;;22.20;11.60;;;;;;;-8.78;62.34;100988.98;102701;1257;138671;-68
2024/01/08 00:20:43;;;;;;;24.20;11.50;;;;;;;-8.77;62.38;100988.17;102762;1257;108256;-69
2024/01/08 00:23:11;;;;;;;24.00;12.50;;;;;;;-8.72;62.45;100983.45;102726;1258;139144;-68
2024/01/08 00:25:38;;;;;;;18.90;11.60;;;;;;;-8.73;62.43;100983.49;102982;1256;107391;-68
2024/01/08 00:28:05;;;;;;;25.70;12.80;;;;;;;-8.71;62.63;100982.47;101217;1260;1006195;-68
2024/01/08 00:30:32;;;;;;;21.60;11.70;;;;;;;-8.67;62.78;100985.02;102658;1256;1015734;-68
2024/01/08 00:33:00;;;;;;;19.50;10.60;;;;;;;-8.63;62.83;100982.57;103787;1256;1003188;-68
2024/01/08 00:35:27;;;;;;;19.60;11.00;;;;;;;-8.63;62.65;100979.40;103397;1256;1140817;-68
2024/01/08 00:37:54;;;;;;;21.50;11.40;;;;;;;-8.56;62.62;100983.48;103359;1260;107342;-68
2024/01/08 00:40:21;;;;;;;23.20;11.70;;;;;;;-8.60;62.23;100977.02;102620;1257;1003694;-68
2024/01/08 00:42:49;;;;;;;19.50;11.60;;;;;;;-8.63;62.34;100979.05;102857;1257;139108;-66
2024/01/08 00:45:16;;;;;;;18.40;10.90;;;;;;;-8.65;62.25;100985.16;102744;1257;107075;-71
2024/01/08 00:47:43;;;;;;;19.20;11.40;;;;;;;-8.68;62.29;100986.33;103074;1257;138743;-67
2024/01/08 00:50:13;;;;;;;21.90;12.30;;;;;;;-8.70;62.40;100991.95;104038;1256;106990;-67
2024/01/08 00:52:40;;;;;;;20.30;11.50;;;;;;;-8.72;62.16;100993.85;103993;1257;95920;-67
2024/01/08 00:55:11;;;;;;;21.30;11.90;;;;;;;-8.77;62.15;101000.80;104094;1257;139015;-67
2024/01/08 00:57:39;;;;;;;19.80;11.40;;;;;;;-8.82;62.13;100998.13;103422;1257;1002900;-68
2024/01/08 01:00:08;;;;;;;20.30;11.50;;;;;;;-8.86;62.19;101006.87;103301;1257;1002437;-67
2024/01/08 01:02:35;;;;;;;19.70;10.80;;;;;;;-8.90;62.33;101008.00;103427;1257;107132;-67
2024/01/08 01:05:03;;;;;;;22.50;11.50;;;;;;;-8.91;62.54;101009.29;102733;1256;140008;-68
2024/01/08 01:07:30;;;;;;;17.90;10.20;;;;;;;-8.92;62.38;101013.94;102922;1260;112920;-69
2024/01/08 01:09:58;;;;;;;21.50;11.60;;;;;;;-8.95;62.38;101015.10;102885;1257;107014;-67
2024/01/08 01:12:31;;;;;;;23.80;12.30;;;;;;;-8.98;62.50;101011.59;102775;1255;138843;-66
2024/01/08 01:14:58;;;;;;;20.20;11.70;;;;;;;-8.98;62.66;101013.42;102975;1254;108501;-67
2024/01/08 01:17:25;;;;;;;20.00;11.70;;;;;;;-8.93;62.96;101015.40;102788;1254;139158;-67
2024/01/08 01:19:52;;;;;;;21.60;11.70;;;;;;;-8.88;62.97;101015.34;102872;1260;110974;-67
2024/01/08 01:22:19;;;;;;;24.60;12.40;;;;;;;-8.89;62.72;101018.13;102861;1259;108225;-67
2024/01/08 01:24:46;;;;;;;22.30;12.60;;;;;;;-8.89;62.86;101013.96;102822;1259;139004;-68
2024/01/08 01:27:13;;;;;;;25.50;12.80;;;;;;;-8.90;62.87;101013.88;102204;1255;1002553;-68
2024/01/08 01:29:40;;;;;;;22.40;12.40;;;;;;;-8.92;62.85;101009.88;102802;1256;139049;-67
2024/01/08 01:32:08;;;;;;;23.70;11.90;;;;;;;-8.89;62.93;101016.83;102875;1257;111727;-67
2024/01/08 01:34:35;;;;;;;21.20;12.00;;;;;;;-8.92;62.74;101017.48;103530;1254;1002628;-67
2024/01/08 01:37:02;;;;;;;22.10;12.30;;;;;;;-9.01;62.49;101021.50;104128;1254;139425;-68
2024/01/08 01:39:29;;;;;;;26.90;14.00;;;;;;;-9.04;62.86;101024.01;102695;1257;1002943;-68
2024/01/08 01:41:56;;;;;;;23.50;12.20;;;;;;;-9.06;63.09;101022.02;102747;1257;138857;-68
2024/01/08 01:44:23;;;;;;;24.40;12.50;;;;;;;-9.06;62.95;101025.07;102855;1255;110970;-67
2024/01/08 01:46:52;;;;;;;23.00;12.60;;;;;;;-9.06;63.23;101031.65;102891;1256;108099;-68
2024/01/08 01:49:21;;;;;;;22.50;12.10;;;;;;;-9.07;63.36;101031.77;102983;1260;98116;-67
2024/01/08 01:51:50;;;;;;;22.90;12.70;;;;;;;-8.99;63.63;101036.59;102139;1257;1003074;-67
2024/01/08 01:54:19;;;;;;;21.20;12.00;;;;;;;-8.94;63.48;101043.00;102773;1256;139065;-67
2024/01/08 01:56:50;;;;;;;24.80;12.90;;;;;;;-8.92;63.45;101039.36;104201;1257;110824;-67
2024/01/08 01:59:18;;;;;;;24.50;12.70;;;;;;;-8.91;63.34;101040.48;102900;1259;138895;-68
2024/01/08 02:01:46;;;;;;;20.20;11.80;;;;;;;-8.94;63.22;101049.88;103000;1256;98310;-67
2024/01/08 02:04:14;;;;;;;21.60;12.20;;;;;;;-8.94;63.20;101049.41;104325;1259;108024;-67
2024/01/08 02:06:44;;;;;;;24.60;12.80;;;;;;;-8.93;63.35;101050.96;104232;1256;138748;-67
2024/01/08 02:09:13;;;;;;;24.00;12.80;;;;;;;-8.95;63.18;101051.52;104337;1256;109972;-67
2024/01/08 02:11:40;;;;;;;24.30;13.10;;;;;;;-8.97;63.05;101053.10;104212;1254;141043;-67
2024/01/08 02:14:07;;;;;;;21.50;12.40;;;;;;;-9.07;62.87;101057.34;102891;1256;98427;-67
2024/01/08 02:16:35;;;;;;;23.40;12.50;;;;;;;-9.13;63.20;101060.90;102849;1260;107479;-66
2024/01/08 02:19:02;;;;;;;23.90;12.70;;;;;;;-9.12;63.32;101059.93;103300;1254;139719;-67
2024/01/08 02:21:28;;;;;;;25.20;12.50;;;;;;;-9.11;63.42;101058.30;102874;1259;110977;-68
2024/01/08 02:23:56;;;;;;;21.70;11.90;;;;;;;-9.12;63.35;101052.36;102726;1256;139417;-68
2024/01/08 02:26:24;;;;;;;19.70;11.60;;;;;;;-9.09;63.54;101057.05;102912;1258;97782;-69
2024/01/08 02:28:51;;;;;;;22.00;11.50;;;;;;;-9.06;63.35;101067.02;102770;1257;108625;-68
2024/01/08 02:31:20;;;;;;;21.70;11.70;;;;;;;-9.08;63.22;101074.01;102728;1260;139974;-68
2024/01/08 02:33:47;;;;;;;22.30;12.40;;;;;;;-9.04;63.66;101077.40;102897;1258;111578;-68
2024/01/08 02:36:14;;;;;;;21.20;11.60;;;;;;;-9.00;63.48;101084.38;102763;1260;138867;-67
2024/01/08 02:38:41;;;;;;;23.20;12.20;;;;;;;-8.96;63.45;101085.48;102939;1256;98515;-67
2024/01/08 02:41:08;;;;;;;26.10;12.30;;;;;;;-8.89;63.48;101088.60;102804;1256;139142;-67
2024/01/08 02:43:35;;;;;;;21.80;11.20;;;;;;;-8.85;63.23;101087.98;102953;1257;97800;-67
2024/01/08 02:46:02;;;;;;;20.60;11.20;;;;;;;-8.88;63.14;101086.99;102925;1257;111323;-67
2024/01/08 02:48:29;;;;;;;23.70;12.40;;;;;;;-8.86;63.06;101094.48;102769;1254;139640;-66
2024/01/08 02:50:56;;;;;;;19.20;11.50;;;;;;;-8.86;62.72;101095.17;103031;1257;97852;-67
2024/01/08 02:53:23;;;;;;;19.40;11.00;;;;;;;-8.92;62.43;101093.46;102770;1256;140105;-68
2024/01/08 02:55:51;;;;;;;21.70;12.10;;;;;;;-9.03;62.12;101098.69;102941;1255;97819;-67
2024/01/08 02:58:18;;;;;;;23.80;12.20;;;;;;;-9.15;62.22;101101.69;102908;1259;110717;-67
2024/01/08 03:00:45;;;;;;;20.40;11.80;;;;;;;-9.22;62.32;101108.88;102787;1257;139346;-67
2024/01/08 03:03:12;;;;;;;25.70;12.30;;;;;;;-9.30;62.41;101103.86;102975;1259;97808;-66
2024/01/08 03:05:39;;;;;;;21.60;11.30;;;;;;;-9.36;62.71;101113.02;104244;1255;140329;-68
2024/01/08 03:08:06;;;;;;;21.80;11.80;;;;;;;-9.43;62.64;101118.05;103632;1256;1003132;-68
2024/01/08 03:10:33;;;;;;;20.40;11.20;;;;;;;-9.48;62.73;101121.09;104314;1254;110231;-68
2024/01/08 03:13:00;;;;;;;20.60;10.90;;;;;;;-9.50;62.86;101119.27;104175;1256;142558;-67
2024/01/08 03:15:27;;;;;;;21.80;11.80;;;;;;;-9.51;62.90;101125.63;103538;1256;97074;-68
2024/01/08 03:17:54;;;;;;;22.40;11.90;;;;;;;-9.53;63.05;101127.98;103277;1256;139730;-68
2024/01/08 03:20:22;;;;;;;21.60;11.70;;;;;;;-9.51;62.94;101133.40;103368;1260;97177;-66
2024/01/08 03:22:52;;;;;;;21.40;11.60;;;;;;;-9.53;62.92;101130.70;102125;1260;1004902;-66
2024/01/08 03:25:19;;;;;;;21.90;11.90;;;;;;;-9.55;63.05;101132.61;104321;1254;109337;-67
2024/01/08 03:27:47;;;;;;;21.90;11.90;;;;;;;-9.49;63.22;101136.34;104393;1254;96219;-69
2024/01/08 03:30:15;;;;;;;19.70;12.00;;;;;;;-9.46;63.14;101139.39;103085;1256;139230;-67
2024/01/08 03:32:42;;;;;;;23.70;12.30;;;;;;;-9.51;62.96;101137.74;103228;1256;97716;-67
2024/01/08 03:35:10;;;;;;;23.00;11.50;;;;;;;-9.52;62.68;101141.88;102834;1256;139336;-69
2024/01/08 03:37:38;;;;;;;23.70;11.90;;;;;;;-9.58;62.60;101144.67;102840;1260;107644;-66
2024/01/08 03:40:06;;;;;;;21.20;12.30;;;;;;;-9.65;62.52;101145.43;102840;1256;98422;-67
2024/01/08 03:42:33;;;;;;;21.10;12.30;;;;;;;-9.66;62.82;101149.11;104148;1256;138494;-68
2024/01/08 03:45:00;;;;;;;20.00;11.40;;;;;;;-9.63;62.97;101149.42;103351;1259;97900;-68
2024/01/08 03:47:27;;;;;;;22.40;11.80;;;;;;;-9.57;62.99;101150.46;101965;1254;1003522;-70
2024/01/08 03:49:55;;;;;;;19.40;11.10;;;;;;;-9.55;62.95;101153.81;102848;1256;107670;-68
2024/01/08 03:52:22;;;;;;;19.50;12.30;;;;;;;-9.50;63.07;101151.09;102799;1259;97917;-68
2024/01/08 03:54:49;;;;;;;22.20;12.10;;;;;;;-9.45;62.82;101154.95;102738;1256;138655;-68
2024/01/08 03:57:16;;;;;;;22.20;12.50;;;;;;;-9.42;62.64;101157.11;102863;1259;97790;-68
2024/01/08 03:59:45;;;;;;;23.10;11.80;;;;;;;-9.44;62.47;101164.46;102698;1256;138742;-67
2024/01/08 04:02:13;;;;;;;20.00;12.00;;;;;;;-9.43;62.36;101165.48;103914;1256;106541;-68
2024/01/08 04:04:40;;;;;;;19.60;11.80;;;;;;;-9.43;62.65;101166.02;102990;1260;98336;-68
2024/01/08 04:07:07;;;;;;;23.10;11.80;;;;;;;-9.43;62.34;101171.06;101801;1256;1002643;-68
2024/01/08 04:09:34;;;;;;;22.30;11.40;;;;;;;-9.45;62.11;101175.48;102976;1256;97806;-68
2024/01/08 04:12:04;;;;;;;20.60;11.40;;;;;;;-9.60;62.10;101164.42;102772;1260;139280;-67
2024/01/08 04:14:31;;;;;;;20.40;11.80;;;;;;;-9.57;61.92;101180.63;102971;1254;108224;-68
2024/01/08 04:17:01;;;;;;;21.10;11.90;;;;;;;-9.63;61.94;101186.77;102836;1259;139238;-67
2024/01/08 04:19:28;;;;;;;22.30;12.80;;;;;;;-9.66;62.02;101184.59;102957;1259;107415;-68
2024/01/08 04:21:55;;;;;;;23.50;12.30;;;;;;;-9.71;62.11;101186.11;102994;1259;97786;-67
2024/01/08 04:24:22;;;;;;;22.60;12.70;;;;;;;-9.74;61.96;101185.75;103535;1254;1004083;-68
2024/01/08 04:26:49;;;;;;;20.00;11.70;;;;;;;-9.76;62.11;101186.84;104348;1255;106713;-69
2024/01/08 04:29:16;;;;;;;23.20;12.00;;;;;;;-9.75;62.15;101191.77;103850;1256;139141;-68
2024/01/08 04:31:43;;;;;;;22.40;11.70;;;;;;;-9.74;62.13;101200.70;102918;1256;107636;-68
2024/01/08 04:34:10;;;;;;;19.30;12.20;;;;;;;-9.75;62.21;101205.39;102886;1256;97820;-67
2024/01/08 04:36:42;;;;;;;22.90;12.80;;;;;;;-9.73;62.12;101200.45;102847;1254;138859;-67
2024/01/08 04:39:09;;;;;;;20.70;11.40;;;;;;;-9.75;62.02;101199.96;104291;1255;107899;-68
2024/01/08 04:41:36;;;;;;;22.00;12.20;;;;;;;-9.72;62.03;101206.05;104307;1255;138872;-68
2024/01/08 04:44:03;;;;;;;21.10;11.50;;;;;;;-9.74;61.84;101205.46;103332;1256;107979;-68
2024/01/08 04:46:30;;;;;;;20.40;12.00;;;;;;;-9.75;62.03;101207.41;103033;1255;97803;-68
2024/01/08 04:48:57;;;;;;;24.10;12.60;;;;;;;-9.71;62.10;101207.80;102889;1256;140197;-68
2024/01/08 04:51:25;;;;;;;20.80;12.00;;;;;;;-9.77;61.61;101203.61;103017;1254;107036;-68
2024/01/08 04:53:52;;;;;;;27.60;12.00;;;;;;;-9.78;61.69;101212.98;103591;1256;138708;-68
2024/01/08 04:56:24;;;;;;;21.60;12.10;;;;;;;-9.76;61.77;101216.13;102931;1259;109242;-67
2024/01/08 04:58:51;;;;;;;20.50;11.90;;;;;;;-9.73;61.79;101218.14;104390;1254;95840;-68
2024/01/08 05:01:18;;;;;;;20.90;11.70;;;;;;;-9.71;61.85;101221.11;104247;1255;139155;-68
2024/01/08 05:03:45;;;;;;;21.20;11.80;;;;;;;-9.71;61.83;101223.52;104281;1256;107683;-67
2024/01/08 05:06:13;;;;;;;20.70;12.20;;;;;;;-9.70;61.61;101226.75;103118;1255;138992;-68
2024/01/08 05:08:40;;;;;;;22.00;12.30;;;;;;;-9.65;61.88;101230.11;103542;1256;1002344;-69
2024/01/08 05:11:07;;;;;;;23.40;12.10;;;;;;;-9.63;61.63;101229.55;104257;1256;139709;-69
2024/01/08 05:13:35;;;;;;;21.70;12.30;;;;;;;-9.68;61.15;101230.71;103644;1254;1002833;-70
2024/01/08 05:16:02;;;;;;;20.30;11.50;;;;;;;-9.80;60.97;101238.05;104288;1256;107718;-69
2024/01/08 05:18:30;;;;;;;22.10;11.30;;;;;;;-9.91;61.04;101239.49;104348;1255;138938;-69
2024/01/08 05:20:57;;;;;;;24.00;12.50;;;;;;;-9.97;61.04;101241.80;103362;1256;107344;-68
2024/01/08 05:23:24;;;;;;;20.50;12.10;;;;;;;-9.99;61.20;101249.59;101394;1254;1015550;-69
2024/01/08 05:25:51;;;;;;;21.70;11.80;;;;;;;-10.04;61.18;101255.01;103396;1255;111259;-67
2024/01/08 05:28:18;;;;;;;18.10;11.50;;;;;;;-10.12;61.16;101258.98;102775;1256;107699;-67
2024/01/08 05:30:46;;;;;;;20.20;12.00;;;;;;;-10.22;61.36;101264.92;103242;1256;139394;-68
2024/01/08 05:33:13;;;;;;;21.50;11.50;;;;;;;-10.25;61.27;101263.38;102238;1255;1002777;-68
2024/01/08 05:35:40;;;;;;;20.80;12.10;;;;;;;-10.20;61.45;101267.23;102752;1256;139386;-67
2024/01/08 05:38:07;;;;;;;23.10;12.10;;;;;;;-10.24;61.45;101267.64;103268;1256;111156;-68
2024/01/08 05:40:34;;;;;;;20.40;11.90;;;;;;;-10.29;61.49;101266.46;103326;1256;1003137;-68
2024/01/08 05:43:01;;;;;;;21.40;12.20;;;;;;;-10.32;61.46;101266.90;103495;1256;1002561;-69
2024/01/08 05:45:28;;;;;;;21.10;12.20;;;;;;;-10.34;61.71;101275.20;103765;1255;107396;-69
2024/01/08 05:47:55;;;;;;;23.70;12.10;;;;;;;-10.32;61.83;101280.52;102784;1254;1003068;-69
2024/01/08 05:50:25;;;;;;;23.90;11.80;;;;;;;-10.30;61.84;101284.49;103945;1254;110078;-68
2024/01/08 05:52:53;;;;;;;22.10;12.30;;;;;;;-10.25;61.71;101286.70;102935;1259;107530;-68
2024/01/08 05:55:20;;;;;;;23.10;12.20;;;;;;;-10.24;61.49;101288.10;102013;1256;1002840;-67
2024/01/08 05:57:47;;;;;;;21.30;12.10;;;;;;;-10.26;61.53;101292.21;104202;1256;107375;-68
2024/01/08 06:00:16;;;;;;;20.70;11.30;;;;;;;-10.27;61.35;101293.79;103738;1254;141025;-67
2024/01/08 06:02:43;;;;;;;21.50;11.20;;;;;;;-10.26;61.49;101290.67;104356;1256;111474;-68
2024/01/08 06:05:11;;;;;;;20.80;11.30;;;;;;;-10.25;61.58;101287.77;102950;1257;139172;-66
2024/01/08 06:07:43;;;;;;;22.20;11.20;;;;;;;-10.24;61.02;101289.84;104397;1254;96147;-67
2024/01/08 06:10:10;;;;;;;23.10;11.20;;;;;;;-10.30;60.67;101291.73;104333;1255;108834;-68
2024/01/08 06:12:37;;;;;;;22.40;11.80;;;;;;;-10.40;60.63;101290.98;104286;1255;139479;-67
2024/01/08 06:15:05;;;;;;;23.00;12.10;;;;;;;-10.45;60.65;101296.30;103578;1254;1003029;-68
2024/01/08 06:17:32;;;;;;;22.00;12.00;;;;;;;-10.44;60.97;101302.77;103621;1255;139531;-67
2024/01/08 06:19:59;;;;;;;22.70;11.50;;;;;;;-10.49;60.85;101308.29;102893;1259;98938;-67
2024/01/08 06:22:27;;;;;;;22.60;12.00;;;;;;;-10.62;60.56;101314.48;102212;1258;1002991;-66
2024/01/08 06:24:54;;;;;;;21.30;11.50;;;;;;;-10.73;60.46;101311.52;102148;1258;1003248;-66
2024/01/08 06:27:20;;;;;;;19.50;11.80;;;;;;;-10.79;60.83;101313.58;102148;1259;1002689;-67
2024/01/08 06:29:47;;;;;;;24.30;12.40;;;;;;;-10.83;60.69;101316.64;102847;1256;139278;-67
2024/01/08 06:32:14;;;;;;;24.30;12.20;;;;;;;-10.89;60.88;101317.08;102967;1260;97868;-67
2024/01/08 06:34:42;;;;;;;22.70;11.80;;;;;;;-10.94;60.71;101322.78;102237;1259;1003228;-67
2024/01/08 06:37:09;;;;;;;23.40;11.20;;;;;;;-10.98;61.04;101323.67;102026;1259;1003583;-67
2024/01/08 06:39:38;;;;;;;24.40;11.40;;;;;;;-11.04;61.22;101326.98;102884;1260;111267;-66
2024/01/08 06:42:06;;;;;;;25.50;11.50;;;;;;;-11.06;61.18;101332.23;102693;1259;138918;-67
2024/01/08 06:44:32;;;;;;;23.80;11.60;;;;;;;-11.06;61.27;101332.02;102964;1259;1003327;-68
2024/01/08 06:47:00;;;;;;;21.30;10.80;;;;;;;-11.09;61.13;101335.35;102976;1256;107236;-69
2024/01/08 06:49:27;;;;;;;24.10;11.50;;;;;;;-11.09;61.34;101337.55;102988;1256;97691;-67
2024/01/08 06:51:54;;;;;;;22.30;11.60;;;;;;;-11.01;61.45;101339.45;103075;1256;110422;-68
2024/01/08 06:54:20;;;;;;;21.60;11.10;;;;;;;-11.01;61.44;101333.55;102956;1256;139693;-69
2024/01/08 06:56:48;;;;;;;22.50;11.80;;;;;;;-11.00;61.21;101337.02;103161;1259;97708;-68
2024/01/08 06:59:15;;;;;;;21.80;11.80;;;;;;;-11.01;61.42;101347.18;103036;1256;138858;-67
2024/01/08 07:01:42;;;;;;;20.70;11.30;;;;;;;-11.00;61.33;101347.23;103470;1256;97712;-68
2024/01/08 07:04:09;;;;;;;22.40;11.90;;;;;;;-11.02;61.39;101340.55;104376;1256;112056;-67
2024/01/08 07:06:36;;;;;;;20.00;11.70;;;;;;;-10.99;61.43;101343.27;104085;1256;139084;-67
2024/01/08 07:09:04;;;;;;;19.50;11.70;;;;;;;-10.91;61.53;101348.20;104353;1255;96425;-67
2024/01/08 07:11:30;;;;;;;22.90;11.40;;;;;;;-10.85;61.48;101351.45;104278;1255;139244;-67
2024/01/08 07:13:58;;;;;;;20.40;11.50;;;;;;;-10.75;61.70;101357.72;104476;1256;95861;-68
2024/01/08 07:16:26;;;;;;;21.00;11.40;;;;;;;-10.65;61.29;101362.77;103970;1255;110535;-69
2024/01/08 07:18:54;;;;;;;23.10;12.60;;;;;;;-10.54;61.00;101363.11;103587;1255;139131;-67
2024/01/08 07:21:22;;;;;;;21.50;12.00;;;;;;;-10.35;61.11;101365.94;103162;1259;97896;-69
2024/01/08 07:23:50;;;;;;;24.20;12.50;;;;;;;-10.13;61.44;101367.73;103379;1256;139326;-67
2024/01/08 07:26:17;;;;;;;21.80;11.80;;;;;;;-9.93;61.33;101369.09;103520;1256;97834;-66
2024/01/08 07:28:44;;;;;;;18.80;11.50;;;;;;;-9.76;60.77;101374.13;103100;1256;112157;-66
2024/01/08 07:31:12;;;;;;;22.60;11.80;;;;;;;-9.57;60.61;101373.23;103224;1256;138809;-65
2024/01/08 07:33:40;;;;;;;20.30;11.60;;;;;;;-9.35;60.46;101374.83;103266;1256;97849;-67
2024/01/08 07:36:09;;;;;;;19.50;11.20;;;;;;;-9.11;60.20;101375.05;103334;1256;139013;-66
2024/01/08 07:38:36;;;;;;;22.20;12.60;;;;;;;-8.89;59.81;101377.10;103418;1256;97932;-68
2024/01/08 07:41:06;;;;;;;20.00;10.90;;;;;;;-8.75;59.37;101376.52;102194;1256;1003634;-67
2024/01/08 07:43:34;;;;;;;21.30;12.10;;;;;;;-8.62;58.65;101386.27;104458;1256;107674;-67
2024/01/08 07:46:00;;;;;;;21.40;11.50;;;;;;;-8.58;58.05;101392.27;103322;1256;97793;-67
2024/01/08 07:48:27;;;;;;;20.60;12.50;;;;;;;-8.58;57.66;101398.30;103112;1256;138592;-66
2024/01/08 07:50:55;;;;;;;20.10;11.20;;;;;;;-8.61;57.28;101413.61;103192;1260;97803;-67
2024/01/08 07:53:22;;;;;;;21.10;11.60;;;;;;;-8.63;57.46;101414.34;103195;1260;138887;-67
2024/01/08 07:55:49;;;;;;;22.10;11.90;;;;;;;-8.57;57.84;101416.08;103674;1258;107639;-64
2024/01/08 07:58:17;;;;;;;23.60;13.00;;;;;;;-8.36;58.26;101415.84;103164;1256;99514;-67
2024/01/08 13:38:12;;;;;;;26.60;15.90;;;;;;;-4.49;46.18;101655.23;99286;1293;1003503;-66
2024/01/08 13:40:42;;;;;;;30.00;16.70;;;;;;;-4.59;46.82;101658.80;101728;1264;1004268;-66
2024/01/08 13:43:09;;;;;;;30.60;16.70;;;;;;;-4.62;46.80;101667.80;101615;1263;1003756;-67
2024/01/08 13:45:36;;;;;;;29.50;17.20;;;;;;;-4.71;46.36;101673.26;103404;1263;94424;-66
2024/01/08 13:48:05;;;;;;;26.30;15.80;;;;;;;-4.85;46.98;101684.03;102502;1260;137018;-66
2024/01/08 13:50:32;;;;;;;28.30;16.90;;;;;;;-4.86;47.85;101691.99;104031;1260;107222;-66
2024/01/08 13:52:59;;;;;;;30.70;17.10;;;;;;;-4.85;48.94;101695.80;103253;1261;1002585;-66
2024/01/08 13:55:26;;;;;;;29.10;15.90;;;;;;;-4.91;48.33;101699.35;104499;1257;108124;-66
2024/01/08 13:57:58;;;;;;;26.50;15.20;;;;;;;-5.06;47.79;101705.13;103772;1257;1003290;-66
2024/01/08 14:00:25;;;;;;;28.60;16.30;;;;;;;-5.20;47.90;101704.38;104503;1254;137564;-66
2024/01/08 14:02:53;;;;;;;29.40;15.50;;;;;;;-5.31;47.56;101713.30;104456;1254;107100;-66
2024/01/08 14:05:20;;;;;;;28.50;15.70;;;;;;;-5.46;47.81;101712.42;103954;1254;138017;-65
2024/01/08 14:07:47;;;;;;;24.00;13.90;;;;;;;-5.64;47.48;101718.05;102351;1258;1003662;-65
2024/01/08 14:10:14;;;;;;;26.00;14.80;;;;;;;-5.80;47.88;101717.66;103142;1254;95246;-66
2024/01/08 14:12:41;;;;;;;28.70;14.50;;;;;;;-5.87;48.07;101719.77;102472;1254;1003401;-66
2024/01/08 14:15:12;;;;;;;28.20;13.90;;;;;;;-5.88;48.42;101722.45;103175;1254;107341;-65
2024/01/08 14:17:40;;;;;;;29.50;14.00;;;;;;;-5.92;48.41;101717.48;103723;1254;1002571;-66
2024/01/08 14:20:10;;;;;;;26.00;14.00;;;;;;;-6.01;48.14;101725.77;103496;1254;107127;-67
2024/01/08 14:22:37;;;;;;;28.00;14.00;;;;;;;-6.03;48.67;101728.52;103205;1258;1002564;-67
2024/01/08 14:25:05;;;;;;;24.50;13.50;;;;;;;-6.01;48.57;101731.02;103996;1254;108642;-66
2024/01/08 14:27:33;;;;;;;23.70;13.70;;;;;;;-6.01;48.78;101731.67;103981;1254;106989;-66
2024/01/08 14:30:00;;;;;;;28.80;13.60;;;;;;;-6.11;48.69;101736.72;103268;1254;138206;-66
2024/01/08 14:32:27;;;;;;;25.10;14.10;;;;;;;-6.17;48.70;101735.70;103376;1254;107778;-67
2024/01/08 14:34:54;;;;;;;27.70;14.60;;;;;;;-6.23;48.63;101733.65;103205;1260;139154;-66
2024/01/08 14:37:21;;;;;;;27.10;13.50;;;;;;;-6.33;48.78;101740.82;103448;1254;109316;-66
2024/01/08 14:39:48;;;;;;;24.70;13.10;;;;;;;-6.49;48.62;101743.26;103405;1254;108309;-66
2024/01/08 14:42:15;;;;;;;23.70;12.80;;;;;;;-6.66;48.72;101752.02;103593;1257;138024;-67
2024/01/08 14:44:42;;;;;;;28.00;14.40;;;;;;;-6.79;49.21;101755.14;103308;1254;107984;-66
2024/01/08 14:47:09;;;;;;;24.80;13.90;;;;;;;-6.90;49.30;101758.68;103319;1254;138849;-66
2024/01/08 14:49:36;;;;;;;26.20;13.80;;;;;;;-7.01;49.85;101758.34;102651;1255;1002663;-65
2024/01/08 14:52:04;;;;;;;23.70;13.20;;;;;;;-7.09;50.01;101763.08;103367;1259;107641;-65
2024/01/08 14:54:31;;;;;;;30.60;14.40;;;;;;;-7.16;49.82;101762.10;103443;1254;138003;-65
2024/01/08 14:56:58;;;;;;;25.40;13.20;;;;;;;-7.21;50.32;101758.18;103416;1254;108378;-65
2024/01/08 14:59:25;;;;;;;24.60;13.20;;;;;;;-7.25;50.05;101756.98;103298;1256;139718;-67
2024/01/08 15:01:53;;;;;;;23.00;13.10;;;;;;;-7.26;50.42;101761.25;103407;1254;110047;-69
2024/01/08 15:04:24;;;;;;;25.70;13.60;;;;;;;-7.30;50.42;101760.67;103412;1255;108155;-66
2024/01/08 15:06:51;;;;;;;28.20;14.80;;;;;;;-7.35;50.84;101759.41;102509;1256;1003392;-65
2024/01/08 15:09:18;;;;;;;24.80;14.90;;;;;;;-7.37;50.76;101764.13;103452;1254;108192;-64
2024/01/08 15:11:45;;;;;;;30.90;15.20;;;;;;;-7.42;50.94;101760.62;103300;1254;137513;-66
2024/01/08 15:14:13;;;;;;;30.30;16.20;;;;;;;-7.48;50.97;101759.52;103461;1254;107839;-68
2024/01/08 15:16:47;;;;;;;30.00;15.50;;;;;;;-7.56;51.19;101760.34;103256;1255;137586;-67
2024/01/08 15:19:14;;;;;;;29.10;15.50;;;;;;;-7.72;50.86;101763.70;103465;1256;95109;-66
2024/01/08 15:21:41;;;;;;;34.20;16.10;;;;;;;-7.93;50.87;101769.75;104210;1255;109215;-67
2024/01/08 15:24:10;;;;;;;34.50;18.70;;;;;;;-8.07;51.33;101774.23;104570;1255;137578;-67
2024/01/08 15:26:38;;;;;;;32.80;16.00;;;;;;;-8.21;51.60;101781.86;104617;1254;108907;-68
2024/01/08 15:29:05;;;;;;;24.60;14.50;;;;;;;-8.38;51.53;101779.92;103719;1256;1002561;-66
2024/01/08 15:31:32;;;;;;;26.00;13.40;;;;;;;-8.51;51.92;101787.95;104671;1254;93375;-66
2024/01/08 15:33:59;;;;;;;28.40;14.30;;;;;;;-8.64;51.87;101790.13;104640;1252;106888;-67
2024/01/08 15:36:26;;;;;;;26.80;13.80;;;;;;;-8.72;52.18;101784.30;104521;1254;138294;-66
2024/01/08 15:38:54;;;;;;;22.80;12.70;;;;;;;-8.83;52.48;101788.27;104639;1254;108525;-66
2024/01/08 15:41:21;;;;;;;22.90;11.70;;;;;;;-8.96;52.22;101786.69;104495;1253;138285;-67
2024/01/08 15:43:48;;;;;;;25.00;12.40;;;;;;;-9.08;52.39;101793.41;103903;1254;1002396;-66
2024/01/08 15:46:15;;;;;;;25.30;13.30;;;;;;;-9.19;52.60;101800.38;104639;1256;107446;-67
2024/01/08 15:48:42;;;;;;;23.30;12.20;;;;;;;-9.29;52.81;101804.85;104488;1258;139021;-67
2024/01/08 15:51:09;;;;;;;22.10;12.70;;;;;;;-9.34;53.00;101805.71;104235;1257;107677;-67
2024/01/08 15:53:36;;;;;;;26.20;12.60;;;;;;;-9.41;53.12;101808.38;103016;1256;138371;-67
2024/01/08 15:56:03;;;;;;;25.60;11.80;;;;;;;-9.49;53.38;101812.39;104147;1254;95163;-67
2024/01/08 15:58:30;;;;;;;23.30;12.40;;;;;;;-9.56;53.51;101816.85;104623;1256;107770;-70
2024/01/08 16:00:57;;;;;;;20.80;12.50;;;;;;;-9.63;53.62;101822.39;104667;1256;93655;-69
2024/01/08 16:03:24;;;;;;;26.30;12.60;;;;;;;-9.68;53.77;101821.73;104339;1257;107821;-68
2024/01/08 16:05:51;;;;;;;23.90;12.50;;;;;;;-9.74;53.92;101816.55;103184;1256;138012;-68
2024/01/08 16:08:19;;;;;;;25.40;13.70;;;;;;;-9.67;54.40;101829.72;103239;1257;95111;-69
2024/01/08 16:10:46;;;;;;;28.50;14.00;;;;;;;-9.63;54.42;101834.00;103174;1257;138316;-70
2024/01/08 16:13:13;;;;;;;30.10;14.20;;;;;;;-9.64;54.58;101826.71;103280;1257;95064;-69
2024/01/08 16:15:41;;;;;;;28.50;14.10;;;;;;;-9.56;54.92;101840.09;103369;1255;109087;-69
2024/01/08 16:18:08;;;;;;;30.60;15.00;;;;;;;-9.55;55.06;101846.70;103238;1253;138119;-71
2024/01/08 16:20:36;;;;;;;29.10;14.30;;;;;;;-9.51;55.13;101842.20;102693;1257;1002958;-69
2024/01/08 16:23:04;;;;;;;27.90;15.80;;;;;;;-9.48;54.90;101845.23;102647;1254;1002790;-69
2024/01/08 16:25:31;;;;;;;28.90;14.00;;;;;;;-9.50;54.96;101851.69;103532;1257;95224;-71
2024/01/08 16:27:58;;;;;;;27.50;14.80;;;;;;;-9.52;55.22;101855.86;103524;1256;108458;-70
2024/01/08 16:30:25;;;;;;;34.40;15.10;;;;;;;-9.54;55.47;101858.75;102913;1254;1003312;-70